Terminal Aerodrome Forecast
Issued by NWS Wilmington, OH

Current Version | Previous Version | Text Only | Print | Product List | Glossary Off
Versions: 1 2 3 4 5 6 7 8 9 10 11 12 13 14 15 16 17 18 19 20 21 22 23 24

000
FTUS41 KILN 030700 AAB
TAFILN
TAF AMD
KILN 030700Z 0307/0406 06007KT 6SM BR BKN090
     FM031200 06008KT P6SM BKN040
     FM031900 04008KT P6SM VCSH BKN040
     FM040100 01004KT P6SM SCT040=

USA.gov is the U.S. government's official web portal to all federal, state and local government web resources and services.